JFA31D EGWU-LIML
Flight info
| Callsign | JFA31D |
|---|---|
| Flight time | N/A |
| Altitude | 25000 |
| Route | MATCH Q295 BRAIN P44 DAGGA M85 ITVIP L10 DVR UL9 KONAN DCT KOK DCT SISGA DCT KOMOB DCT SUTAL DCT GTQ DCT DEVDI DCT ODINA |
| Aircraft | PC12/L-SDFGRWY/S |
Departure
| Time | 2026-05-07 09:38 |
|---|---|
| Airport | RAF Northolt (EGWU) |
Arrival
| Time | N/A |
|---|---|
| Airport | Milano Linate Airport (LIML) |
| Time | Latitude | Longitude | Altitude | Speed | Heading |
|---|---|---|---|---|---|
| 2026-05-07 09:11 | 51.55029 | -0.41711 | 116 ft | 0 kts | 101° |
| 2026-05-07 09:32 | 51.55029 | -0.41709 | 116 ft | 2 kts | 101° |
| 2026-05-07 09:32 | 51.55075 | -0.41685 | 117 ft | 15 kts | 359° |
| 2026-05-07 09:33 | 51.55097 | -0.41837 | 119 ft | 21 kts | 257° |
| 2026-05-07 09:33 | 51.55029 | -0.42122 | 118 ft | 33 kts | 250° |
| 2026-05-07 09:33 | 51.54949 | -0.42509 | 118 ft | 33 kts | 267° |
| 2026-05-07 09:33 | 51.54963 | -0.42789 | 117 ft | 29 kts | 277° |
| 2026-05-07 09:34 | 51.54970 | -0.42884 | 115 ft | 0 kts | 278° |
| 2026-05-07 09:36 | 51.54974 | -0.42934 | 116 ft | 19 kts | 276° |
| 2026-05-07 09:36 | 51.55044 | -0.43031 | 113 ft | 21 kts | 106° |
| 2026-05-07 09:37 | 51.55057 | -0.42905 | 115 ft | 0 kts | 70° |
| 2026-05-07 09:37 | 51.55071 | -0.42847 | 117 ft | 26 kts | 68° |
| 2026-05-07 09:37 | 51.55211 | -0.42232 | 126 ft | 89 kts | 69° |
| 2026-05-07 09:37 | 51.55458 | -0.41113 | 273 ft | 113 kts | 70° |
| 2026-05-07 09:38 | 51.55764 | -0.39827 | 570 ft | 134 kts | 69° |
| 2026-05-07 09:38 | 51.56210 | -0.38387 | 954 ft | 151 kts | 49° |
| 2026-05-07 09:38 | 51.57185 | -0.37641 | 1366 ft | 163 kts | 12° |
| 2026-05-07 09:38 | 51.58310 | -0.37343 | 1779 ft | 169 kts | 11° |
| 2026-05-07 09:39 | 51.59536 | -0.37002 | 2153 ft | 188 kts | 11° |
| 2026-05-07 09:39 | 51.60860 | -0.36632 | 2556 ft | 188 kts | 10° |
| 2026-05-07 09:39 | 51.62146 | -0.36291 | 2912 ft | 192 kts | 10° |
| 2026-05-07 09:39 | 51.63477 | -0.35938 | 3161 ft | 188 kts | 9° |
| 2026-05-07 09:40 | 51.64744 | -0.35600 | 3667 ft | 188 kts | 10° |
| 2026-05-07 09:40 | 51.66043 | -0.35245 | 4186 ft | 191 kts | 11° |
| 2026-05-07 09:40 | 51.67266 | -0.34387 | 4702 ft | 196 kts | 36° |
| 2026-05-07 09:40 | 51.68199 | -0.32752 | 5223 ft | 202 kts | 61° |
| 2026-05-07 09:41 | 51.68820 | -0.30708 | 5754 ft | 205 kts | 66° |
| 2026-05-07 09:41 | 51.69445 | -0.28608 | 6287 ft | 210 kts | 66° |
| 2026-05-07 09:41 | 51.70082 | -0.26478 | 6795 ft | 212 kts | 66° |
| 2026-05-07 09:41 | 51.70743 | -0.24332 | 7294 ft | 215 kts | 63° |
| 2026-05-07 09:42 | 51.71426 | -0.22170 | 7801 ft | 217 kts | 65° |
| 2026-05-07 09:42 | 51.72091 | -0.19972 | 8317 ft | 219 kts | 65° |
| 2026-05-07 09:42 | 51.72772 | -0.17768 | 8833 ft | 220 kts | 64° |
| 2026-05-07 09:42 | 51.73459 | -0.15564 | 9365 ft | 220 kts | 64° |
| 2026-05-07 09:43 | 51.74147 | -0.13350 | 9902 ft | 221 kts | 63° |
| 2026-05-07 09:43 | 51.74822 | -0.11114 | 10394 ft | 222 kts | 68° |
| 2026-05-07 09:43 | 51.75153 | -0.08691 | 10873 ft | 222 kts | 82° |
| 2026-05-07 09:43 | 51.75360 | -0.06227 | 11420 ft | 220 kts | 82° |
| 2026-05-07 09:44 | 51.75577 | -0.03807 | 12046 ft | 216 kts | 82° |
| 2026-05-07 09:44 | 51.75787 | -0.01414 | 12683 ft | 215 kts | 82° |
| 2026-05-07 09:44 | 51.75994 | 0.00967 | 13334 ft | 214 kts | 82° |
| 2026-05-07 09:44 | 51.76202 | 0.03351 | 14006 ft | 215 kts | 82° |
| 2026-05-07 09:45 | 51.76405 | 0.05702 | 14591 ft | 215 kts | 82° |
| 2026-05-07 09:45 | 51.76615 | 0.08139 | 15012 ft | 225 kts | 82° |
| 2026-05-07 09:45 | 51.76827 | 0.10761 | 15107 ft | 246 kts | 83° |
| 2026-05-07 09:45 | 51.77037 | 0.13581 | 15115 ft | 259 kts | 83° |
| 2026-05-07 09:46 | 51.77124 | 0.16511 | 15108 ft | 264 kts | 99° |
| 2026-05-07 09:46 | 51.76379 | 0.19072 | 15659 ft | 246 kts | 132° |
| 2026-05-07 09:46 | 51.75137 | 0.20868 | 16292 ft | 235 kts | 142° |
| 2026-05-07 09:46 | 51.73951 | 0.22638 | 16931 ft | 230 kts | 134° |
| 2026-05-07 09:47 | 51.72945 | 0.24620 | 17580 ft | 227 kts | 128° |
| 2026-05-07 09:47 | 51.71995 | 0.26631 | 18242 ft | 224 kts | 129° |
| 2026-05-07 09:47 | 51.71030 | 0.28581 | 18847 ft | 222 kts | 130° |
| 2026-05-07 09:47 | 51.70061 | 0.30505 | 19436 ft | 220 kts | 130° |
| 2026-05-07 09:48 | 51.69096 | 0.32430 | 19979 ft | 222 kts | 130° |
| 2026-05-07 09:48 | 51.68122 | 0.34373 | 20386 ft | 230 kts | 130° |
| 2026-05-07 09:48 | 51.67088 | 0.36437 | 20773 ft | 236 kts | 130° |
| 2026-05-07 09:48 | 51.66043 | 0.38522 | 21070 ft | 244 kts | 130° |
| 2026-05-07 09:49 | 51.64955 | 0.40689 | 21096 ft | 259 kts | 130° |
| 2026-05-07 09:49 | 51.63797 | 0.42993 | 21088 ft | 269 kts | 130° |
| 2026-05-07 09:49 | 51.62607 | 0.45361 | 21086 ft | 274 kts | 130° |
| 2026-05-07 09:49 | 51.61401 | 0.47760 | 21095 ft | 277 kts | 130° |
| 2026-05-07 09:50 | 51.60183 | 0.50179 | 21084 ft | 280 kts | 130° |
| 2026-05-07 09:50 | 51.58949 | 0.52625 | 21086 ft | 283 kts | 130° |
| 2026-05-07 09:50 | 51.57704 | 0.55095 | 21088 ft | 286 kts | 130° |
| 2026-05-07 09:50 | 51.56448 | 0.57582 | 21092 ft | 287 kts | 130° |
| 2026-05-07 09:51 | 51.55185 | 0.60080 | 21085 ft | 288 kts | 130° |
| 2026-05-07 09:51 | 51.53919 | 0.62582 | 21087 ft | 289 kts | 130° |
| 2026-05-07 09:51 | 51.52651 | 0.65085 | 21081 ft | 289 kts | 130° |
| 2026-05-07 09:51 | 51.51384 | 0.67583 | 21081 ft | 289 kts | 130° |
| 2026-05-07 09:52 | 51.50115 | 0.70087 | 21091 ft | 289 kts | 130° |
| 2026-05-07 09:52 | 51.48844 | 0.72586 | 21083 ft | 289 kts | 130° |
| 2026-05-07 09:52 | 51.47573 | 0.75085 | 21081 ft | 289 kts | 130° |
| 2026-05-07 09:52 | 51.46306 | 0.77574 | 21258 ft | 282 kts | 130° |
| 2026-05-07 09:53 | 51.45103 | 0.79942 | 21797 ft | 269 kts | 130° |
| 2026-05-07 09:53 | 51.43939 | 0.82225 | 22341 ft | 261 kts | 130° |
| 2026-05-07 09:53 | 51.42803 | 0.84451 | 22895 ft | 255 kts | 130° |
| 2026-05-07 09:53 | 51.41684 | 0.86639 | 23435 ft | 252 kts | 130° |
| 2026-05-07 09:54 | 51.40577 | 0.88806 | 23925 ft | 250 kts | 130° |
| 2026-05-07 09:54 | 51.39476 | 0.90957 | 24392 ft | 249 kts | 130° |
| 2026-05-07 09:54 | 51.38378 | 0.93101 | 24867 ft | 249 kts | 130° |
| 2026-05-07 09:54 | 51.37280 | 0.95245 | 25347 ft | 248 kts | 130° |
| 2026-05-07 09:55 | 51.36436 | 0.97647 | 25777 ft | 251 kts | 111° |
| 2026-05-07 09:55 | 51.35923 | 1.00337 | 26153 ft | 254 kts | 106° |
| 2026-05-07 09:55 | 51.35447 | 1.03084 | 26536 ft | 257 kts | 107° |
| 2026-05-07 09:55 | 51.34874 | 1.05806 | 26884 ft | 261 kts | 111° |
| 2026-05-07 09:56 | 51.34221 | 1.08550 | 27088 ft | 269 kts | 111° |
| 2026-05-07 09:56 | 51.33554 | 1.11418 | 27096 ft | 281 kts | 110° |
| 2026-05-07 09:56 | 51.32894 | 1.14365 | 27093 ft | 287 kts | 110° |
| 2026-05-07 09:56 | 51.32223 | 1.17350 | 27100 ft | 283 kts | 110° |
| 2026-05-07 09:57 | 51.31553 | 1.20293 | 27091 ft | 280 kts | 111° |
| 2026-05-07 09:57 | 51.30884 | 1.23220 | 27094 ft | 281 kts | 111° |
| 2026-05-07 09:57 | 51.30214 | 1.26158 | 27088 ft | 282 kts | 111° |
| 2026-05-07 09:57 | 51.29544 | 1.29098 | 27092 ft | 282 kts | 111° |
| 2026-05-07 09:58 | 51.28871 | 1.32047 | 27100 ft | 282 kts | 111° |
| 2026-05-07 09:58 | 51.28196 | 1.34994 | 27093 ft | 283 kts | 111° |
| 2026-05-07 09:58 | 51.27520 | 1.37942 | 27093 ft | 283 kts | 111° |
| 2026-05-07 09:58 | 51.26843 | 1.40891 | 27096 ft | 283 kts | 111° |
| 2026-05-07 09:59 | 51.26165 | 1.43842 | 27100 ft | 283 kts | 111° |
| 2026-05-07 09:59 | 51.25486 | 1.46790 | 27097 ft | 283 kts | 111° |
| 2026-05-07 09:59 | 51.24807 | 1.49738 | 27099 ft | 283 kts | 111° |
| 2026-05-07 09:59 | 51.24125 | 1.52689 | 27087 ft | 283 kts | 111° |
| 2026-05-07 10:00 | 51.23444 | 1.55638 | 27087 ft | 283 kts | 111° |
| 2026-05-07 10:00 | 51.22770 | 1.58550 | 27086 ft | 283 kts | 111° |
| 2026-05-07 10:00 | 51.22087 | 1.61498 | 27092 ft | 283 kts | 111° |
| 2026-05-07 10:00 | 51.21402 | 1.64447 | 27087 ft | 284 kts | 111° |
| 2026-05-07 10:01 | 51.20717 | 1.67396 | 27091 ft | 284 kts | 111° |
| 2026-05-07 10:01 | 51.20031 | 1.70344 | 27086 ft | 284 kts | 111° |
| 2026-05-07 10:01 | 51.19344 | 1.73291 | 27084 ft | 284 kts | 111° |
| 2026-05-07 10:01 | 51.18655 | 1.76244 | 27081 ft | 284 kts | 111° |
| 2026-05-07 10:02 | 51.17966 | 1.79192 | 27088 ft | 284 kts | 111° |
| 2026-05-07 10:02 | 51.17276 | 1.82140 | 27089 ft | 284 kts | 111° |
| 2026-05-07 10:02 | 51.16586 | 1.85087 | 27083 ft | 284 kts | 111° |
| 2026-05-07 10:02 | 51.15895 | 1.88031 | 27081 ft | 284 kts | 111° |
| 2026-05-07 10:03 | 51.15203 | 1.90978 | 27078 ft | 284 kts | 111° |
| 2026-05-07 10:03 | 51.14509 | 1.93925 | 27068 ft | 284 kts | 111° |
| 2026-05-07 10:03 | 51.13815 | 1.96872 | 27073 ft | 284 kts | 111° |
| 2026-05-07 10:03 | 51.13165 | 1.99847 | 27072 ft | 285 kts | 104° |
| 2026-05-07 10:04 | 51.12916 | 2.02982 | 27075 ft | 286 kts | 95° |
| 2026-05-07 10:04 | 51.12758 | 2.06138 | 27073 ft | 286 kts | 95° |
| 2026-05-07 10:04 | 51.12645 | 2.08230 | 27073 ft | 286 kts | 95° |
| 2026-05-07 10:04 | 51.12473 | 2.11385 | 27077 ft | 286 kts | 95° |
| 2026-05-07 10:05 | 51.12304 | 2.14538 | 27073 ft | 286 kts | 95° |
| 2026-05-07 10:05 | 51.12135 | 2.17692 | 27064 ft | 286 kts | 95° |
| 2026-05-07 10:05 | 51.11964 | 2.20847 | 27070 ft | 286 kts | 95° |
| 2026-05-07 10:05 | 51.11792 | 2.24001 | 27071 ft | 286 kts | 95° |
| 2026-05-07 10:06 | 51.11619 | 2.27155 | 27080 ft | 286 kts | 95° |
| 2026-05-07 10:06 | 51.11446 | 2.30308 | 27079 ft | 286 kts | 95° |
| 2026-05-07 10:06 | 51.11271 | 2.33465 | 27072 ft | 286 kts | 95° |
| 2026-05-07 10:06 | 51.11096 | 2.36615 | 27075 ft | 286 kts | 95° |
| 2026-05-07 10:07 | 51.10920 | 2.39772 | 27080 ft | 286 kts | 95° |
| 2026-05-07 10:07 | 51.10743 | 2.42922 | 27076 ft | 286 kts | 95° |
| 2026-05-07 10:07 | 51.10565 | 2.46076 | 27064 ft | 286 kts | 95° |
| 2026-05-07 10:07 | 51.10386 | 2.49229 | 27076 ft | 286 kts | 95° |
| 2026-05-07 10:08 | 51.10207 | 2.52385 | 27077 ft | 286 kts | 96° |
| 2026-05-07 10:08 | 51.10027 | 2.55534 | 27078 ft | 286 kts | 96° |
| 2026-05-07 10:08 | 51.09846 | 2.58687 | 27062 ft | 286 kts | 96° |
| 2026-05-07 10:08 | 51.09663 | 2.61840 | 27077 ft | 286 kts | 96° |
| 2026-05-07 10:09 | 51.09366 | 2.64962 | 27064 ft | 285 kts | 107° |
| 2026-05-07 10:09 | 51.08591 | 2.67853 | 27068 ft | 284 kts | 119° |
| 2026-05-07 10:09 | 51.07664 | 2.70630 | 27073 ft | 284 kts | 119° |
| 2026-05-07 10:09 | 51.06742 | 2.73410 | 27068 ft | 284 kts | 119° |
| 2026-05-07 10:10 | 51.05822 | 2.76194 | 27075 ft | 284 kts | 119° |
| 2026-05-07 10:10 | 51.04913 | 2.78941 | 27078 ft | 285 kts | 119° |
| 2026-05-07 10:10 | 51.03976 | 2.81760 | 27077 ft | 285 kts | 119° |
| 2026-05-07 10:10 | 51.03063 | 2.84507 | 27083 ft | 285 kts | 119° |
| 2026-05-07 10:11 | 51.02125 | 2.87329 | 27076 ft | 285 kts | 119° |
| 2026-05-07 10:11 | 51.01209 | 2.90079 | 27081 ft | 286 kts | 119° |
| 2026-05-07 10:11 | 51.00280 | 2.92867 | 27080 ft | 286 kts | 119° |
| 2026-05-07 10:11 | 50.99347 | 2.95660 | 27083 ft | 286 kts | 119° |
| 2026-05-07 10:12 | 50.98417 | 2.98443 | 27078 ft | 286 kts | 119° |
| 2026-05-07 10:12 | 50.97486 | 3.01228 | 27081 ft | 286 kts | 119° |
| 2026-05-07 10:12 | 50.96552 | 3.04015 | 27083 ft | 286 kts | 119° |
| 2026-05-07 10:12 | 50.95619 | 3.06798 | 27077 ft | 286 kts | 119° |
| 2026-05-07 10:13 | 50.94685 | 3.09582 | 27085 ft | 286 kts | 119° |
| 2026-05-07 10:13 | 50.93749 | 3.12366 | 27085 ft | 286 kts | 119° |
| 2026-05-07 10:13 | 50.92815 | 3.15145 | 27079 ft | 286 kts | 119° |
| 2026-05-07 10:13 | 50.91879 | 3.17922 | 27081 ft | 286 kts | 119° |
| 2026-05-07 10:14 | 50.90943 | 3.20701 | 27081 ft | 286 kts | 119° |
| 2026-05-07 10:14 | 50.90004 | 3.23480 | 27081 ft | 286 kts | 119° |
| 2026-05-07 10:14 | 50.89066 | 3.26256 | 27081 ft | 286 kts | 119° |
| 2026-05-07 10:14 | 50.88128 | 3.29032 | 27080 ft | 286 kts | 119° |
| 2026-05-07 10:15 | 50.87190 | 3.31801 | 27078 ft | 286 kts | 119° |
| 2026-05-07 10:15 | 50.86251 | 3.34572 | 27075 ft | 286 kts | 119° |
| 2026-05-07 10:15 | 50.85310 | 3.37345 | 27077 ft | 286 kts | 119° |
| 2026-05-07 10:15 | 50.84370 | 3.40112 | 27078 ft | 286 kts | 119° |
| 2026-05-07 10:16 | 50.83429 | 3.42879 | 27077 ft | 286 kts | 119° |
| 2026-05-07 10:16 | 50.82486 | 3.45647 | 27077 ft | 285 kts | 119° |
| 2026-05-07 10:16 | 50.81545 | 3.48407 | 27078 ft | 285 kts | 119° |
| 2026-05-07 10:16 | 50.80603 | 3.51169 | 27080 ft | 285 kts | 119° |
| 2026-05-07 10:17 | 50.79660 | 3.53928 | 27082 ft | 285 kts | 119° |
| 2026-05-07 10:17 | 50.78716 | 3.56690 | 27082 ft | 285 kts | 119° |
| 2026-05-07 10:17 | 50.77771 | 3.59450 | 27081 ft | 285 kts | 119° |
| 2026-05-07 10:17 | 50.76839 | 3.62170 | 27084 ft | 285 kts | 120° |
| 2026-05-07 10:18 | 50.75894 | 3.64922 | 27081 ft | 285 kts | 120° |
| 2026-05-07 10:18 | 50.74948 | 3.67678 | 27085 ft | 285 kts | 120° |
| 2026-05-07 10:18 | 50.74001 | 3.70433 | 27084 ft | 285 kts | 120° |
| 2026-05-07 10:18 | 50.73055 | 3.73180 | 27084 ft | 285 kts | 120° |
| 2026-05-07 10:19 | 50.72107 | 3.75931 | 27087 ft | 285 kts | 120° |
| 2026-05-07 10:19 | 50.71161 | 3.78674 | 27088 ft | 285 kts | 120° |
| 2026-05-07 10:19 | 50.70213 | 3.81419 | 27089 ft | 285 kts | 120° |
| 2026-05-07 10:19 | 50.69263 | 3.84165 | 27086 ft | 285 kts | 120° |
| 2026-05-07 10:20 | 50.68313 | 3.86911 | 27087 ft | 285 kts | 120° |
| 2026-05-07 10:20 | 50.67365 | 3.89647 | 27087 ft | 285 kts | 120° |
| 2026-05-07 10:20 | 50.66416 | 3.92384 | 27087 ft | 285 kts | 120° |
| 2026-05-07 10:20 | 50.65466 | 3.95120 | 27086 ft | 285 kts | 120° |
| 2026-05-07 10:21 | 50.64515 | 3.97854 | 27086 ft | 285 kts | 120° |
| 2026-05-07 10:21 | 50.63563 | 4.00591 | 27088 ft | 285 kts | 120° |
| 2026-05-07 10:21 | 50.62611 | 4.03323 | 27085 ft | 285 kts | 120° |
| 2026-05-07 10:21 | 50.61658 | 4.06057 | 27086 ft | 284 kts | 120° |
| 2026-05-07 10:22 | 50.60702 | 4.08783 | 27087 ft | 284 kts | 120° |
| 2026-05-07 10:22 | 50.59743 | 4.11509 | 27083 ft | 285 kts | 120° |
| 2026-05-07 10:22 | 50.58784 | 4.14233 | 27070 ft | 285 kts | 120° |
| 2026-05-07 10:22 | 50.57824 | 4.16959 | 27084 ft | 284 kts | 120° |
| 2026-05-07 10:23 | 50.56868 | 4.19672 | 27078 ft | 283 kts | 120° |
| 2026-05-07 10:23 | 50.55917 | 4.22368 | 27078 ft | 282 kts | 120° |
| 2026-05-07 10:23 | 50.54967 | 4.25057 | 27076 ft | 281 kts | 120° |
| 2026-05-07 10:23 | 50.54016 | 4.27745 | 27073 ft | 281 kts | 120° |
| 2026-05-07 10:24 | 50.53067 | 4.30425 | 27068 ft | 280 kts | 120° |
| 2026-05-07 10:24 | 50.52119 | 4.33100 | 27072 ft | 280 kts | 120° |
| 2026-05-07 10:24 | 50.51170 | 4.35774 | 27077 ft | 280 kts | 120° |
| 2026-05-07 10:24 | 50.50224 | 4.38439 | 27075 ft | 280 kts | 120° |
| 2026-05-07 10:25 | 50.49277 | 4.41105 | 27072 ft | 279 kts | 120° |
| 2026-05-07 10:25 | 50.48329 | 4.43768 | 27072 ft | 279 kts | 120° |
| 2026-05-07 10:25 | 50.47390 | 4.46402 | 27074 ft | 280 kts | 120° |
| 2026-05-07 10:25 | 50.46424 | 4.49112 | 27070 ft | 281 kts | 120° |
| 2026-05-07 10:26 | 50.45467 | 4.51791 | 27078 ft | 282 kts | 120° |
| 2026-05-07 10:26 | 50.44510 | 4.54472 | 27082 ft | 282 kts | 120° |
| 2026-05-07 10:26 | 50.43550 | 4.57153 | 27082 ft | 282 kts | 120° |
| 2026-05-07 10:26 | 50.42589 | 4.59837 | 27079 ft | 282 kts | 120° |
| 2026-05-07 10:27 | 50.41628 | 4.62518 | 27084 ft | 282 kts | 120° |
| 2026-05-07 10:27 | 50.40670 | 4.65190 | 27078 ft | 280 kts | 120° |
| 2026-05-07 10:27 | 50.39714 | 4.67849 | 27080 ft | 279 kts | 120° |
| 2026-05-07 10:27 | 50.38763 | 4.70494 | 27078 ft | 278 kts | 120° |
| 2026-05-07 10:28 | 50.37815 | 4.73129 | 27068 ft | 278 kts | 120° |
| 2026-05-07 10:28 | 50.36864 | 4.75766 | 27067 ft | 278 kts | 120° |
| 2026-05-07 10:28 | 50.35911 | 4.78408 | 27077 ft | 280 kts | 120° |
| 2026-05-07 10:28 | 50.34953 | 4.81061 | 27074 ft | 280 kts | 120° |
| 2026-05-07 10:29 | 50.33993 | 4.83717 | 27080 ft | 280 kts | 120° |
| 2026-05-07 10:29 | 50.33031 | 4.86375 | 27070 ft | 281 kts | 120° |
| 2026-05-07 10:29 | 50.32078 | 4.89005 | 27073 ft | 281 kts | 120° |
| 2026-05-07 10:30 | 50.30148 | 4.94326 | 27072 ft | 280 kts | 120° |
| 2026-05-07 10:30 | 50.29188 | 4.96970 | 27072 ft | 279 kts | 120° |
| 2026-05-07 10:30 | 50.28228 | 4.99608 | 27069 ft | 278 kts | 120° |
| 2026-05-07 10:30 | 50.27274 | 5.02230 | 27067 ft | 277 kts | 120° |
| 2026-05-07 10:31 | 50.26319 | 5.04850 | 27061 ft | 277 kts | 120° |
| 2026-05-07 10:31 | 50.25367 | 5.07458 | 27065 ft | 276 kts | 120° |
| 2026-05-07 10:31 | 50.24415 | 5.10065 | 27057 ft | 276 kts | 120° |
| 2026-05-07 10:31 | 50.23463 | 5.12670 | 27057 ft | 276 kts | 120° |
| 2026-05-07 10:32 | 50.22511 | 5.15272 | 27058 ft | 276 kts | 120° |
| 2026-05-07 10:32 | 50.21559 | 5.17872 | 27062 ft | 276 kts | 120° |
| 2026-05-07 10:32 | 50.20603 | 5.20478 | 27051 ft | 277 kts | 120° |
| 2026-05-07 10:32 | 50.19643 | 5.23093 | 27064 ft | 278 kts | 120° |
| 2026-05-07 10:33 | 50.18679 | 5.25717 | 27056 ft | 278 kts | 120° |
| 2026-05-07 10:33 | 50.17727 | 5.28307 | 27053 ft | 279 kts | 120° |
| 2026-05-07 10:33 | 50.16760 | 5.30931 | 27067 ft | 279 kts | 120° |
| 2026-05-07 10:33 | 50.15785 | 5.33578 | 27070 ft | 284 kts | 120° |
| 2026-05-07 10:34 | 50.14793 | 5.36257 | 27055 ft | 286 kts | 121° |
| 2026-05-07 10:34 | 50.13550 | 5.38667 | 27059 ft | 285 kts | 136° |
| 2026-05-07 10:34 | 50.12133 | 5.40812 | 27057 ft | 284 kts | 136° |
| 2026-05-07 10:34 | 50.10725 | 5.42969 | 27057 ft | 282 kts | 135° |
| 2026-05-07 10:35 | 50.09335 | 5.45106 | 27059 ft | 280 kts | 135° |
| 2026-05-07 10:35 | 50.07950 | 5.47225 | 27049 ft | 278 kts | 136° |
| 2026-05-07 10:35 | 50.06570 | 5.49332 | 27045 ft | 278 kts | 136° |
| 2026-05-07 10:35 | 50.05190 | 5.51438 | 27049 ft | 278 kts | 136° |
| 2026-05-07 10:36 | 50.03804 | 5.53552 | 27044 ft | 280 kts | 136° |
| 2026-05-07 10:36 | 50.02408 | 5.55679 | 27045 ft | 281 kts | 136° |
| 2026-05-07 10:36 | 50.01008 | 5.57811 | 27055 ft | 282 kts | 136° |
| 2026-05-07 10:36 | 49.99603 | 5.59949 | 27055 ft | 283 kts | 136° |
| 2026-05-07 10:37 | 49.98196 | 5.62086 | 27056 ft | 283 kts | 136° |
| 2026-05-07 10:37 | 49.96795 | 5.64215 | 27057 ft | 281 kts | 136° |
| 2026-05-07 10:37 | 49.95398 | 5.66334 | 27053 ft | 280 kts | 136° |
| 2026-05-07 10:37 | 49.94004 | 5.68448 | 27040 ft | 280 kts | 136° |
| 2026-05-07 10:38 | 49.92612 | 5.70557 | 27050 ft | 280 kts | 136° |
| 2026-05-07 10:38 | 49.91220 | 5.72663 | 27048 ft | 279 kts | 136° |
| 2026-05-07 10:38 | 49.89828 | 5.74768 | 27042 ft | 279 kts | 136° |
| 2026-05-07 10:38 | 49.88436 | 5.76873 | 27046 ft | 280 kts | 136° |
| 2026-05-07 10:39 | 49.87044 | 5.78974 | 27038 ft | 280 kts | 137° |
| 2026-05-07 10:39 | 49.85649 | 5.81077 | 27041 ft | 280 kts | 137° |
| 2026-05-07 10:39 | 49.84254 | 5.83180 | 27039 ft | 280 kts | 137° |
| 2026-05-07 10:39 | 49.82857 | 5.85284 | 27041 ft | 280 kts | 137° |
| 2026-05-07 10:40 | 49.81463 | 5.87381 | 27050 ft | 280 kts | 137° |
| 2026-05-07 10:40 | 49.80067 | 5.89479 | 27040 ft | 280 kts | 137° |
| 2026-05-07 10:40 | 49.78688 | 5.91551 | 27047 ft | 280 kts | 137° |
| 2026-05-07 10:40 | 49.77291 | 5.93647 | 27048 ft | 280 kts | 137° |
| 2026-05-07 10:41 | 49.75894 | 5.95742 | 27045 ft | 280 kts | 137° |
| 2026-05-07 10:41 | 49.74497 | 5.97835 | 27046 ft | 280 kts | 137° |
| 2026-05-07 10:41 | 49.73098 | 5.99929 | 27053 ft | 280 kts | 138° |
| 2026-05-07 10:41 | 49.71697 | 6.02024 | 27051 ft | 281 kts | 138° |
| 2026-05-07 10:42 | 49.70293 | 6.04123 | 27055 ft | 281 kts | 138° |
| 2026-05-07 10:42 | 49.68888 | 6.06221 | 27057 ft | 281 kts | 138° |
| 2026-05-07 10:42 | 49.67482 | 6.08318 | 27054 ft | 281 kts | 138° |
| 2026-05-07 10:42 | 49.66076 | 6.10414 | 27050 ft | 281 kts | 139° |
| 2026-05-07 10:43 | 49.64670 | 6.12508 | 27050 ft | 281 kts | 139° |
| 2026-05-07 10:43 | 49.63247 | 6.14626 | 27058 ft | 281 kts | 139° |
| 2026-05-07 10:43 | 49.61858 | 6.16691 | 27048 ft | 281 kts | 139° |
| 2026-05-07 10:43 | 49.60453 | 6.18779 | 27057 ft | 281 kts | 139° |
| 2026-05-07 10:44 | 49.59045 | 6.20868 | 27050 ft | 281 kts | 139° |
| 2026-05-07 10:44 | 49.57636 | 6.22957 | 27058 ft | 281 kts | 139° |
| 2026-05-07 10:44 | 49.56228 | 6.25044 | 27057 ft | 280 kts | 139° |
| 2026-05-07 10:44 | 49.54824 | 6.27124 | 27056 ft | 280 kts | 139° |
| 2026-05-07 10:45 | 49.53418 | 6.29203 | 27048 ft | 280 kts | 139° |
| 2026-05-07 10:45 | 49.52013 | 6.31280 | 27055 ft | 280 kts | 139° |
| 2026-05-07 10:45 | 49.50608 | 6.33354 | 27054 ft | 280 kts | 139° |
| 2026-05-07 10:45 | 49.49204 | 6.35427 | 27051 ft | 279 kts | 139° |
| 2026-05-07 10:46 | 49.47803 | 6.37492 | 27054 ft | 279 kts | 140° |
| 2026-05-07 10:46 | 49.46297 | 6.39326 | 27041 ft | 275 kts | 152° |
| 2026-05-07 10:46 | 49.44587 | 6.40591 | 27029 ft | 272 kts | 160° |
| 2026-05-07 10:46 | 49.42853 | 6.41763 | 27038 ft | 272 kts | 159° |
| 2026-05-07 10:47 | 49.41127 | 6.42945 | 27035 ft | 272 kts | 159° |
| 2026-05-07 10:47 | 49.39398 | 6.44126 | 27037 ft | 271 kts | 159° |
| 2026-05-07 10:47 | 49.37674 | 6.45298 | 27033 ft | 271 kts | 159° |
| 2026-05-07 10:47 | 49.35953 | 6.46467 | 27034 ft | 271 kts | 159° |
| 2026-05-07 10:48 | 49.34232 | 6.47637 | 27036 ft | 270 kts | 159° |
| 2026-05-07 10:48 | 49.32514 | 6.48804 | 27034 ft | 270 kts | 159° |
| 2026-05-07 10:48 | 49.30795 | 6.49970 | 27020 ft | 270 kts | 159° |
| 2026-05-07 10:48 | 49.29082 | 6.51131 | 27026 ft | 269 kts | 159° |
| 2026-05-07 10:49 | 49.27370 | 6.52292 | 27028 ft | 269 kts | 159° |
| 2026-05-07 10:49 | 49.25660 | 6.53449 | 27032 ft | 269 kts | 159° |
| 2026-05-07 10:49 | 49.23950 | 6.54606 | 27035 ft | 268 kts | 159° |
| 2026-05-07 10:49 | 49.22244 | 6.55759 | 27028 ft | 268 kts | 159° |
| 2026-05-07 10:50 | 49.21117 | 6.56521 | 27034 ft | 268 kts | 159° |
| 2026-05-07 10:50 | 49.19410 | 6.57673 | 27035 ft | 267 kts | 159° |
| 2026-05-07 10:50 | 49.17711 | 6.58819 | 27028 ft | 267 kts | 159° |
| 2026-05-07 10:50 | 49.15460 | 6.60336 | 27035 ft | 267 kts | 159° |
| 2026-05-07 10:51 | 49.13764 | 6.61478 | 27023 ft | 266 kts | 159° |
| 2026-05-07 10:51 | 49.12071 | 6.62617 | 27037 ft | 266 kts | 159° |
| 2026-05-07 10:51 | 49.10926 | 6.63387 | 27032 ft | 266 kts | 159° |
| 2026-05-07 10:51 | 49.09235 | 6.64524 | 27031 ft | 266 kts | 159° |
| 2026-05-07 10:52 | 49.07544 | 6.65660 | 27024 ft | 265 kts | 159° |
| 2026-05-07 10:52 | 49.05852 | 6.66795 | 27031 ft | 265 kts | 159° |
| 2026-05-07 10:52 | 49.04188 | 6.67911 | 27023 ft | 265 kts | 159° |
| 2026-05-07 10:52 | 49.02503 | 6.69040 | 27019 ft | 264 kts | 159° |
| 2026-05-07 10:53 | 49.00820 | 6.70166 | 27027 ft | 264 kts | 159° |
| 2026-05-07 10:53 | 48.99141 | 6.71291 | 27028 ft | 263 kts | 159° |
| 2026-05-07 10:53 | 48.97462 | 6.72419 | 27021 ft | 263 kts | 158° |
| 2026-05-07 10:53 | 48.95793 | 6.73568 | 27029 ft | 263 kts | 158° |
| 2026-05-07 10:54 | 48.94126 | 6.74716 | 27024 ft | 263 kts | 158° |
| 2026-05-07 10:54 | 48.92461 | 6.75853 | 27030 ft | 262 kts | 158° |
| 2026-05-07 10:54 | 48.90797 | 6.76986 | 27024 ft | 262 kts | 158° |
| 2026-05-07 10:54 | 48.89137 | 6.78119 | 27033 ft | 261 kts | 158° |
| 2026-05-07 10:55 | 48.87479 | 6.79249 | 27032 ft | 261 kts | 158° |
| 2026-05-07 10:55 | 48.85818 | 6.80381 | 27030 ft | 261 kts | 158° |
| 2026-05-07 10:55 | 48.84163 | 6.81507 | 27033 ft | 261 kts | 158° |
| 2026-05-07 10:55 | 48.82508 | 6.82633 | 27023 ft | 260 kts | 158° |
| 2026-05-07 10:56 | 48.80856 | 6.83756 | 27038 ft | 260 kts | 158° |
| 2026-05-07 10:56 | 48.79207 | 6.84876 | 27036 ft | 260 kts | 158° |
| 2026-05-07 10:56 | 48.77560 | 6.85994 | 27032 ft | 259 kts | 158° |
| 2026-05-07 10:56 | 48.75913 | 6.87111 | 27038 ft | 259 kts | 158° |
| 2026-05-07 10:57 | 48.74267 | 6.88226 | 27033 ft | 259 kts | 158° |
| 2026-05-07 10:57 | 48.72625 | 6.89338 | 27033 ft | 258 kts | 158° |
| 2026-05-07 10:57 | 48.70983 | 6.90449 | 27039 ft | 258 kts | 158° |
| 2026-05-07 10:57 | 48.69343 | 6.91558 | 27033 ft | 258 kts | 158° |
| 2026-05-07 10:58 | 48.67707 | 6.92664 | 27042 ft | 258 kts | 158° |
| 2026-05-07 10:58 | 48.66069 | 6.93770 | 27037 ft | 258 kts | 158° |
| 2026-05-07 10:58 | 48.64430 | 6.94876 | 27031 ft | 258 kts | 158° |
| 2026-05-07 10:58 | 48.62794 | 6.95980 | 27038 ft | 257 kts | 158° |
| 2026-05-07 10:59 | 48.61179 | 6.97068 | 27037 ft | 257 kts | 158° |
| 2026-05-07 10:59 | 48.59546 | 6.98167 | 27044 ft | 257 kts | 158° |
| 2026-05-07 10:59 | 48.57913 | 6.99266 | 27038 ft | 257 kts | 158° |
| 2026-05-07 10:59 | 48.56280 | 7.00365 | 27041 ft | 257 kts | 158° |
| 2026-05-07 11:00 | 48.54646 | 7.01463 | 27038 ft | 257 kts | 158° |
| 2026-05-07 11:00 | 48.53014 | 7.02558 | 27047 ft | 257 kts | 158° |
| 2026-05-07 11:00 | 48.51383 | 7.03652 | 27048 ft | 256 kts | 158° |
| 2026-05-07 11:00 | 48.49753 | 7.04745 | 27044 ft | 257 kts | 158° |
| 2026-05-07 11:01 | 48.48121 | 7.05839 | 27045 ft | 256 kts | 158° |
| 2026-05-07 11:01 | 48.46492 | 7.06930 | 27044 ft | 256 kts | 158° |
| 2026-05-07 11:01 | 48.44865 | 7.08019 | 27045 ft | 256 kts | 158° |
| 2026-05-07 11:01 | 48.43236 | 7.09107 | 27036 ft | 256 kts | 158° |
| 2026-05-07 11:02 | 48.41610 | 7.10194 | 27045 ft | 256 kts | 158° |
| 2026-05-07 11:02 | 48.39985 | 7.11280 | 27047 ft | 255 kts | 158° |
| 2026-05-07 11:02 | 48.38360 | 7.12363 | 27044 ft | 255 kts | 158° |
| 2026-05-07 11:02 | 48.36735 | 7.13447 | 27042 ft | 256 kts | 158° |
| 2026-05-07 11:03 | 48.35107 | 7.14530 | 27048 ft | 256 kts | 158° |
| 2026-05-07 11:03 | 48.33481 | 7.15614 | 27042 ft | 255 kts | 158° |
| 2026-05-07 11:03 | 48.31861 | 7.16693 | 27047 ft | 255 kts | 158° |
| 2026-05-07 11:03 | 48.30241 | 7.17769 | 27043 ft | 254 kts | 158° |
| 2026-05-07 11:04 | 48.28622 | 7.18845 | 27042 ft | 255 kts | 158° |
| 2026-05-07 11:04 | 48.27001 | 7.19922 | 27045 ft | 255 kts | 158° |
| 2026-05-07 11:04 | 48.25376 | 7.20999 | 27049 ft | 255 kts | 158° |
| 2026-05-07 11:04 | 48.23754 | 7.22075 | 27049 ft | 255 kts | 158° |
| 2026-05-07 11:05 | 48.22133 | 7.23149 | 27043 ft | 254 kts | 158° |
| 2026-05-07 11:05 | 48.20514 | 7.24221 | 27048 ft | 254 kts | 158° |
| 2026-05-07 11:05 | 48.18918 | 7.25277 | 27047 ft | 254 kts | 158° |
| 2026-05-07 11:05 | 48.17279 | 7.26361 | 27047 ft | 254 kts | 158° |
| 2026-05-07 11:06 | 48.15679 | 7.27418 | 27047 ft | 255 kts | 158° |
| 2026-05-07 11:06 | 48.14035 | 7.28503 | 27046 ft | 255 kts | 158° |
| 2026-05-07 11:06 | 48.12433 | 7.29560 | 27050 ft | 255 kts | 158° |
| 2026-05-07 11:06 | 48.10814 | 7.30628 | 27051 ft | 255 kts | 158° |
| 2026-05-07 11:07 | 48.09190 | 7.31698 | 27042 ft | 255 kts | 158° |
| 2026-05-07 11:07 | 48.07567 | 7.32767 | 27047 ft | 255 kts | 158° |
| 2026-05-07 11:07 | 48.05943 | 7.33835 | 27035 ft | 255 kts | 158° |
| 2026-05-07 11:07 | 48.04319 | 7.34904 | 27042 ft | 255 kts | 158° |
| 2026-05-07 11:08 | 48.02695 | 7.35970 | 27040 ft | 255 kts | 158° |
| 2026-05-07 11:08 | 48.01072 | 7.37036 | 27040 ft | 255 kts | 158° |
| 2026-05-07 11:08 | 47.99450 | 7.38101 | 27032 ft | 255 kts | 158° |
| 2026-05-07 11:08 | 47.97827 | 7.39165 | 27039 ft | 255 kts | 158° |
| 2026-05-07 11:09 | 47.96205 | 7.40228 | 27031 ft | 255 kts | 158° |
| 2026-05-07 11:09 | 47.94583 | 7.41290 | 27032 ft | 255 kts | 158° |
| 2026-05-07 11:09 | 47.92960 | 7.42352 | 27036 ft | 255 kts | 158° |
| 2026-05-07 11:09 | 47.91338 | 7.43413 | 27034 ft | 255 kts | 158° |
| 2026-05-07 11:10 | 47.89716 | 7.44473 | 27025 ft | 255 kts | 158° |
| 2026-05-07 11:10 | 47.88094 | 7.45532 | 27035 ft | 255 kts | 159° |
| 2026-05-07 11:10 | 47.86467 | 7.46593 | 27028 ft | 255 kts | 159° |
| 2026-05-07 11:10 | 47.84842 | 7.47653 | 27034 ft | 255 kts | 159° |
| 2026-05-07 11:11 | 47.83215 | 7.48713 | 27030 ft | 255 kts | 159° |
| 2026-05-07 11:11 | 47.81588 | 7.49773 | 27039 ft | 255 kts | 159° |
| 2026-05-07 11:11 | 47.79956 | 7.50835 | 27035 ft | 255 kts | 159° |
| 2026-05-07 11:11 | 47.78351 | 7.51879 | 27039 ft | 255 kts | 159° |
| 2026-05-07 11:12 | 47.76723 | 7.52937 | 27038 ft | 255 kts | 159° |
| 2026-05-07 11:12 | 47.75094 | 7.53995 | 27040 ft | 255 kts | 159° |
| 2026-05-07 11:12 | 47.73471 | 7.55070 | 27037 ft | 255 kts | 157° |
| 2026-05-07 11:12 | 47.71870 | 7.56213 | 27039 ft | 255 kts | 157° |
| 2026-05-07 11:13 | 47.70263 | 7.57343 | 27038 ft | 256 kts | 157° |
| 2026-05-07 11:13 | 47.68654 | 7.58474 | 27043 ft | 256 kts | 157° |
| 2026-05-07 11:13 | 47.67047 | 7.59608 | 27041 ft | 256 kts | 157° |
| 2026-05-07 11:13 | 47.65439 | 7.60742 | 27043 ft | 256 kts | 157° |
| 2026-05-07 11:14 | 47.63830 | 7.61875 | 27044 ft | 256 kts | 157° |
| 2026-05-07 11:14 | 47.62222 | 7.63007 | 27042 ft | 256 kts | 158° |
| 2026-05-07 11:14 | 47.60612 | 7.64139 | 27044 ft | 256 kts | 158° |
| 2026-05-07 11:14 | 47.59001 | 7.65272 | 27045 ft | 256 kts | 158° |
| 2026-05-07 11:15 | 47.57389 | 7.66404 | 27044 ft | 257 kts | 158° |
| 2026-05-07 11:15 | 47.55769 | 7.67541 | 27047 ft | 258 kts | 158° |
| 2026-05-07 11:15 | 47.54146 | 7.68679 | 27043 ft | 258 kts | 158° |
| 2026-05-07 11:15 | 47.52524 | 7.69816 | 27043 ft | 257 kts | 158° |
| 2026-05-07 11:16 | 47.50911 | 7.70946 | 27037 ft | 257 kts | 158° |
| 2026-05-07 11:16 | 47.49298 | 7.72075 | 27039 ft | 255 kts | 158° |
| 2026-05-07 11:16 | 47.47696 | 7.73196 | 27034 ft | 255 kts | 158° |
| 2026-05-07 11:16 | 47.46096 | 7.74315 | 27034 ft | 254 kts | 158° |
| 2026-05-07 11:17 | 47.44497 | 7.75431 | 27034 ft | 254 kts | 158° |
| 2026-05-07 11:17 | 47.42894 | 7.76550 | 27034 ft | 256 kts | 158° |
| 2026-05-07 11:17 | 47.41279 | 7.77677 | 27035 ft | 258 kts | 158° |
| 2026-05-07 11:17 | 47.39656 | 7.78808 | 27033 ft | 258 kts | 158° |
| 2026-05-07 11:18 | 47.38027 | 7.79943 | 27032 ft | 259 kts | 158° |
| 2026-05-07 11:18 | 47.36397 | 7.81079 | 27032 ft | 259 kts | 158° |
| 2026-05-07 11:18 | 47.34786 | 7.82199 | 27027 ft | 258 kts | 159° |
| 2026-05-07 11:18 | 47.33170 | 7.83323 | 27021 ft | 256 kts | 159° |
| 2026-05-07 11:19 | 47.31561 | 7.84441 | 27015 ft | 255 kts | 159° |
| 2026-05-07 11:19 | 47.29956 | 7.85555 | 27014 ft | 255 kts | 159° |
| 2026-05-07 11:19 | 47.28350 | 7.86669 | 27025 ft | 256 kts | 158° |
| 2026-05-07 11:19 | 47.26730 | 7.87792 | 27029 ft | 259 kts | 159° |
| 2026-05-07 11:20 | 47.25100 | 7.88921 | 27022 ft | 259 kts | 159° |
| 2026-05-07 11:20 | 47.23487 | 7.90039 | 27013 ft | 254 kts | 159° |
| 2026-05-07 11:20 | 47.21887 | 7.91147 | 27012 ft | 256 kts | 159° |
| 2026-05-07 11:20 | 47.20269 | 7.92264 | 27013 ft | 258 kts | 159° |
| 2026-05-07 11:21 | 47.18641 | 7.93389 | 27017 ft | 259 kts | 159° |
| 2026-05-07 11:21 | 47.17006 | 7.94518 | 27015 ft | 260 kts | 159° |
| 2026-05-07 11:21 | 47.15370 | 7.95648 | 27016 ft | 260 kts | 159° |
| 2026-05-07 11:21 | 47.13736 | 7.96775 | 27019 ft | 260 kts | 159° |
| 2026-05-07 11:22 | 47.12102 | 7.97901 | 27017 ft | 258 kts | 159° |
| 2026-05-07 11:22 | 47.10477 | 7.99020 | 27012 ft | 257 kts | 159° |
| 2026-05-07 11:22 | 47.08858 | 8.00134 | 27012 ft | 257 kts | 159° |
| 2026-05-07 11:22 | 47.07243 | 8.01245 | 27012 ft | 256 kts | 159° |
| 2026-05-07 11:23 | 47.05625 | 8.02357 | 27008 ft | 257 kts | 159° |